Daniel Field
KDNL : now visible

Airfield :











YOU CAN JOIN US ON...

 
LOGIN :

Register | Disclaimer

   EN    FR    IT 

 









Legend :    VFR   Marginal VFR   IFR   Intensive IFR   Very Intensive IFR
Visi :
Ceiling :
>= 8 km
>= 3000ft
5 to 8 km
1000 to 3000 ft
1500m to 5 km
500 to 1000 ft
800 to 1500m
200 to 500 ft
< 800m
< 200 ft
Symbols :   Thunderstorms  Fog  Heavy snow  Heavy precipitations  Wind > 20 kt






- Airport Elevation : 423 ft


KDNL - Daniel Field

CURRENT METAR :
  • 200753Z AUTO 00000KT 10SM CLR 17/13 A3018 RMK AO2 SLP216 T01670133

EXPIRED METARs :
  • 200653Z AUTO 02004KT 10SM CLR 17/14 A3019 RMK AO2 SLP218 T01720139
  • 200553Z AUTO 36004KT 10SM CLR 18/14 A3019 RMK AO2 SLP220 T01780139 10222 20172 56002

TAF KDNL
Valid from the 20 at 06:00 until the 21 at 06:00 UTC


200531Z 2006/2106 03004KT P6SM SKC
FM201800 05006KT P6SM SCT040 BKN250
FM210000 04004KT P6SM SCT250
KZTL FIR / North America



MET'MAP, your aeronautical weather chart ! - Copyright ORBIFLY December 2007 - Disclaimer

ORBIFLY MET'MAP TEAM :

Programming & Development : Alexandra Zaïnal
Concept & original design : Baudouin d'Aumeries
Assistance for programming : Marc-Olivier Méhu
Technical & hardware support : Manuel Goepfert

Contact : metmap@orbifly.com




SOURCES & CREDITS :

   NOAA       Earth
Advisory